Terminal Aerodrome Forecast
Issued by NWS

Home | Current Version | Previous Version | Text Only | Print | Product List | Glossary On
Versions: 1 2 3 4 5 6 7 8 9 10 11 12
000
FTUS45 KABQ 301734
TAFFMN
TAF
KFMN 301734Z 3018/3118 16008KT P6SM VCSH SCT060 BKN100
     FM302100 24007KT P6SM VCSH BKN060 BKN100
     FM310000 VRB06KT P6SM VCTS BKN050CB BKN080
      TEMPO 3100/3104 VRB15G25KT TSRA OVC030CB
     FM310600 11006KT P6SM VCSH BKN050 OVC100
     FM311600 16006KT P6SM SCT050 BKN120=

USA.gov is the U.S. government's official web portal to all federal, state and local government web resources and services.